sensor_id;sensor_type;location;lat;lon;timestamp;P1;durP1;ratioP1;P2;durP2;ratioP2
24335;SDS011;33098;52.400;16.880;2023-02-28T00:01:30;17.60;;;8.80;;
24335;SDS011;33098;52.400;16.880;2023-02-28T00:03:57;18.30;;;9.40;;
24335;SDS011;33098;52.400;16.880;2023-02-28T00:06:24;17.00;;;8.60;;
24335;SDS011;33098;52.400;16.880;2023-02-28T00:08:52;17.80;;;8.80;;
24335;SDS011;33098;52.400;16.880;2023-02-28T00:11:18;16.40;;;8.60;;
24335;SDS011;33098;52.400;16.880;2023-02-28T00:13:45;21.80;;;9.60;;
24335;SDS011;33098;52.400;16.880;2023-02-28T00:16:14;18.90;;;9.10;;
24335;SDS011;33098;52.400;16.880;2023-02-28T00:18:42;19.00;;;9.10;;
24335;SDS011;33098;52.400;16.880;2023-02-28T00:21:09;15.40;;;8.80;;
24335;SDS011;33098;52.400;16.880;2023-02-28T00:23:36;16.50;;;8.50;;
24335;SDS011;33098;52.400;16.880;2023-02-28T00:26:02;19.70;;;9.20;;
24335;SDS011;33098;52.400;16.880;2023-02-28T00:28:29;20.30;;;10.00;;
24335;SDS011;33098;52.400;16.880;2023-02-28T00:30:59;21.80;;;10.80;;
24335;SDS011;33098;52.400;16.880;2023-02-28T00:33:26;18.50;;;10.20;;
24335;SDS011;33098;52.400;16.880;2023-02-28T00:36:04;20.20;;;11.10;;
24335;SDS011;33098;52.400;16.880;2023-02-28T00:38:33;23.60;;;11.30;;
24335;SDS011;33098;52.400;16.880;2023-02-28T00:41:00;21.30;;;12.10;;
24335;SDS011;33098;52.400;16.880;2023-02-28T00:43:34;21.40;;;11.10;;
24335;SDS011;33098;52.400;16.880;2023-02-28T00:46:02;25.60;;;12.30;;
24335;SDS011;33098;52.400;16.880;2023-02-28T00:48:30;28.50;;;12.80;;
24335;SDS011;33098;52.400;16.880;2023-02-28T00:50:57;21.90;;;12.60;;
24335;SDS011;33098;52.400;16.880;2023-02-28T00:53:24;26.20;;;13.00;;
24335;SDS011;33098;52.400;16.880;2023-02-28T00:55:51;26.20;;;14.10;;
24335;SDS011;33098;52.400;16.880;2023-02-28T00:58:18;27.20;;;14.40;;
24335;SDS011;33098;52.400;16.880;2023-02-28T01:00:45;26.40;;;13.70;;
24335;SDS011;33098;52.400;16.880;2023-02-28T01:03:16;27.70;;;14.50;;
24335;SDS011;33098;52.400;16.880;2023-02-28T01:05:44;30.90;;;15.00;;
24335;SDS011;33098;52.400;16.880;2023-02-28T01:08:11;30.10;;;14.50;;
24335;SDS011;33098;52.400;16.880;2023-02-28T01:10:39;34.20;;;15.70;;
24335;SDS011;33098;52.400;16.880;2023-02-28T01:13:07;30.80;;;14.20;;
24335;SDS011;33098;52.400;16.880;2023-02-28T01:15:37;29.10;;;14.70;;
24335;SDS011;33098;52.400;16.880;2023-02-28T01:18:09;30.80;;;15.60;;
24335;SDS011;33098;52.400;16.880;2023-02-28T01:20:36;30.20;;;15.80;;
24335;SDS011;33098;52.400;16.880;2023-02-28T01:23:04;32.20;;;16.30;;
24335;SDS011;33098;52.400;16.880;2023-02-28T01:25:30;34.60;;;16.40;;
24335;SDS011;33098;52.400;16.880;2023-02-28T01:27:57;32.30;;;15.30;;
24335;SDS011;33098;52.400;16.880;2023-02-28T01:30:23;27.10;;;14.70;;
24335;SDS011;33098;52.400;16.880;2023-02-28T01:32:49;27.90;;;14.80;;
24335;SDS011;33098;52.400;16.880;2023-02-28T01:35:18;31.10;;;15.60;;
24335;SDS011;33098;52.400;16.880;2023-02-28T01:37:45;28.50;;;14.50;;
24335;SDS011;33098;52.400;16.880;2023-02-28T01:40:12;26.10;;;14.20;;
24335;SDS011;33098;52.400;16.880;2023-02-28T01:42:39;27.10;;;14.80;;
24335;SDS011;33098;52.400;16.880;2023-02-28T01:47:44;28.30;;;14.20;;
24335;SDS011;33098;52.400;16.880;2023-02-28T01:50:13;26.50;;;14.70;;
24335;SDS011;33098;52.400;16.880;2023-02-28T01:52:44;27.50;;;13.70;;
24335;SDS011;33098;52.400;16.880;2023-02-28T01:55:13;27.60;;;14.30;;
24335;SDS011;33098;52.400;16.880;2023-02-28T01:57:45;28.70;;;14.20;;
24335;SDS011;33098;52.400;16.880;2023-02-28T02:00:16;29.40;;;14.00;;
24335;SDS011;33098;52.400;16.880;2023-02-28T02:02:47;26.10;;;14.40;;
24335;SDS011;33098;52.400;16.880;2023-02-28T02:05:20;25.00;;;13.80;;
24335;SDS011;33098;52.400;16.880;2023-02-28T02:07:50;24.00;;;14.10;;
24335;SDS011;33098;52.400;16.880;2023-02-28T02:10:24;25.90;;;13.30;;
24335;SDS011;33098;52.400;16.880;2023-02-28T02:18:32;26.90;;;14.30;;
24335;SDS011;33098;52.400;16.880;2023-02-28T02:21:11;27.90;;;14.40;;
24335;SDS011;33098;52.400;16.880;2023-02-28T02:27:17;28.10;;;14.60;;
24335;SDS011;33098;52.400;16.880;2023-02-28T02:35:52;28.00;;;14.10;;
24335;SDS011;33098;52.400;16.880;2023-02-28T02:46:25;24.40;;;13.30;;
24335;SDS011;33098;52.400;16.880;2023-02-28T02:48:59;25.40;;;13.90;;
24335;SDS011;33098;52.400;16.880;2023-02-28T02:51:30;27.80;;;13.20;;
24335;SDS011;33098;52.400;16.880;2023-02-28T02:54:02;24.20;;;12.80;;
24335;SDS011;33098;52.400;16.880;2023-02-28T02:56:36;24.80;;;12.20;;
24335;SDS011;33098;52.400;16.880;2023-02-28T02:59:12;26.50;;;13.30;;
24335;SDS011;33098;52.400;16.880;2023-02-28T03:01:49;22.80;;;13.00;;
24335;SDS011;33098;52.400;16.880;2023-02-28T03:04:19;26.00;;;12.80;;
24335;SDS011;33098;52.400;16.880;2023-02-28T03:06:50;23.20;;;13.00;;
24335;SDS011;33098;52.400;16.880;2023-02-28T03:09:22;25.80;;;13.50;;
24335;SDS011;33098;52.400;16.880;2023-02-28T03:11:53;20.50;;;11.60;;
24335;SDS011;33098;52.400;16.880;2023-02-28T03:25:05;21.30;;;12.00;;
24335;SDS011;33098;52.400;16.880;2023-02-28T03:27:39;22.90;;;12.00;;
24335;SDS011;33098;52.400;16.880;2023-02-28T03:30:18;21.90;;;12.00;;
24335;SDS011;33098;52.400;16.880;2023-02-28T03:32:55;21.20;;;12.20;;
24335;SDS011;33098;52.400;16.880;2023-02-28T03:35:32;24.00;;;11.70;;
24335;SDS011;33098;52.400;16.880;2023-02-28T03:38:06;22.00;;;11.00;;
24335;SDS011;33098;52.400;16.880;2023-02-28T03:40:42;20.00;;;11.70;;
24335;SDS011;33098;52.400;16.880;2023-02-28T03:43:19;21.30;;;11.20;;
24335;SDS011;33098;52.400;16.880;2023-02-28T03:46:02;21.00;;;11.70;;
24335;SDS011;33098;52.400;16.880;2023-02-28T03:48:43;23.20;;;11.70;;
24335;SDS011;33098;52.400;16.880;2023-02-28T03:51:18;22.70;;;11.10;;
24335;SDS011;33098;52.400;16.880;2023-02-28T03:53:52;23.70;;;11.70;;
24335;SDS011;33098;52.400;16.880;2023-02-28T03:56:34;22.40;;;11.10;;
24335;SDS011;33098;52.400;16.880;2023-02-28T03:59:22;21.90;;;11.90;;
24335;SDS011;33098;52.400;16.880;2023-02-28T04:02:06;23.60;;;12.20;;
24335;SDS011;33098;52.400;16.880;2023-02-28T04:04:35;22.20;;;11.90;;
24335;SDS011;33098;52.400;16.880;2023-02-28T04:07:07;23.30;;;12.20;;
24335;SDS011;33098;52.400;16.880;2023-02-28T04:09:36;23.80;;;12.60;;
24335;SDS011;33098;52.400;16.880;2023-02-28T04:12:04;25.10;;;12.20;;
24335;SDS011;33098;52.400;16.880;2023-02-28T04:14:33;23.80;;;12.60;;
24335;SDS011;33098;52.400;16.880;2023-02-28T04:17:02;18.50;;;11.50;;
24335;SDS011;33098;52.400;16.880;2023-02-28T04:19:33;22.90;;;12.80;;
24335;SDS011;33098;52.400;16.880;2023-02-28T04:22:07;22.70;;;12.60;;
24335;SDS011;33098;52.400;16.880;2023-02-28T04:24:36;24.50;;;12.20;;
24335;SDS011;33098;52.400;16.880;2023-02-28T04:27:08;25.70;;;13.80;;
24335;SDS011;33098;52.400;16.880;2023-02-28T04:29:36;23.10;;;13.00;;
24335;SDS011;33098;52.400;16.880;2023-02-28T04:32:11;27.80;;;14.30;;
24335;SDS011;33098;52.400;16.880;2023-02-28T04:34:39;25.80;;;13.80;;
24335;SDS011;33098;52.400;16.880;2023-02-28T04:37:06;23.40;;;12.80;;
24335;SDS011;33098;52.400;16.880;2023-02-28T04:39:38;24.40;;;14.50;;
24335;SDS011;33098;52.400;16.880;2023-02-28T04:42:05;25.70;;;13.20;;
24335;SDS011;33098;52.400;16.880;2023-02-28T04:44:33;24.50;;;13.70;;
24335;SDS011;33098;52.400;16.880;2023-02-28T04:47:00;26.40;;;13.30;;
24335;SDS011;33098;52.400;16.880;2023-02-28T04:49:34;27.00;;;13.30;;
24335;SDS011;33098;52.400;16.880;2023-02-28T04:52:05;24.40;;;13.30;;
24335;SDS011;33098;52.400;16.880;2023-02-28T04:54:36;26.70;;;12.90;;
24335;SDS011;33098;52.400;16.880;2023-02-28T04:57:05;24.10;;;12.90;;
24335;SDS011;33098;52.400;16.880;2023-02-28T04:59:34;27.80;;;14.20;;
24335;SDS011;33098;52.400;16.880;2023-02-28T05:02:01;28.60;;;13.80;;
24335;SDS011;33098;52.400;16.880;2023-02-28T05:04:34;30.40;;;14.40;;
24335;SDS011;33098;52.400;16.880;2023-02-28T05:07:01;30.30;;;14.20;;
24335;SDS011;33098;52.400;16.880;2023-02-28T05:09:30;29.40;;;14.30;;
24335;SDS011;33098;52.400;16.880;2023-02-28T05:12:00;25.20;;;13.90;;
24335;SDS011;33098;52.400;16.880;2023-02-28T05:14:28;32.10;;;14.70;;
24335;SDS011;33098;52.400;16.880;2023-02-28T05:16:57;25.60;;;14.70;;
24335;SDS011;33098;52.400;16.880;2023-02-28T05:19:25;27.30;;;14.70;;
24335;SDS011;33098;52.400;16.880;2023-02-28T05:22:01;26.50;;;14.00;;
24335;SDS011;33098;52.400;16.880;2023-02-28T05:24:29;27.30;;;14.90;;
24335;SDS011;33098;52.400;16.880;2023-02-28T05:26:57;24.80;;;14.20;;
24335;SDS011;33098;52.400;16.880;2023-02-28T05:29:25;29.50;;;15.30;;
24335;SDS011;33098;52.400;16.880;2023-02-28T05:31:52;25.10;;;13.60;;
24335;SDS011;33098;52.400;16.880;2023-02-28T05:34:22;28.90;;;14.90;;
24335;SDS011;33098;52.400;16.880;2023-02-28T05:36:54;26.40;;;13.80;;
24335;SDS011;33098;52.400;16.880;2023-02-28T05:39:24;28.40;;;13.80;;
24335;SDS011;33098;52.400;16.880;2023-02-28T05:41:52;24.80;;;14.40;;
24335;SDS011;33098;52.400;16.880;2023-02-28T05:44:22;26.80;;;13.30;;
24335;SDS011;33098;52.400;16.880;2023-02-28T05:46:49;26.20;;;14.60;;
24335;SDS011;33098;52.400;16.880;2023-02-28T05:49:19;26.50;;;14.00;;
24335;SDS011;33098;52.400;16.880;2023-02-28T05:51:47;24.00;;;13.50;;
24335;SDS011;33098;52.400;16.880;2023-02-28T05:54:15;30.20;;;14.40;;
24335;SDS011;33098;52.400;16.880;2023-02-28T05:56:48;27.60;;;14.10;;
24335;SDS011;33098;52.400;16.880;2023-02-28T05:59:16;29.30;;;14.90;;
24335;SDS011;33098;52.400;16.880;2023-02-28T06:01:46;31.90;;;15.10;;
24335;SDS011;33098;52.400;16.880;2023-02-28T06:04:17;27.50;;;15.00;;
24335;SDS011;33098;52.400;16.880;2023-02-28T06:06:47;29.40;;;15.20;;
24335;SDS011;33098;52.400;16.880;2023-02-28T06:09:24;26.90;;;14.20;;
24335;SDS011;33098;52.400;16.880;2023-02-28T06:11:52;27.90;;;14.50;;
24335;SDS011;33098;52.400;16.880;2023-02-28T06:14:21;30.30;;;14.60;;
24335;SDS011;33098;52.400;16.880;2023-02-28T06:16:50;32.10;;;14.40;;
24335;SDS011;33098;52.400;16.880;2023-02-28T06:19:19;28.50;;;14.10;;
24335;SDS011;33098;52.400;16.880;2023-02-28T06:21:49;25.80;;;13.40;;
24335;SDS011;33098;52.400;16.880;2023-02-28T06:24:18;28.70;;;14.30;;
24335;SDS011;33098;52.400;16.880;2023-02-28T06:26:50;26.10;;;13.70;;
24335;SDS011;33098;52.400;16.880;2023-02-28T06:29:18;29.40;;;14.30;;
24335;SDS011;33098;52.400;16.880;2023-02-28T06:31:45;27.20;;;14.50;;
24335;SDS011;33098;52.400;16.880;2023-02-28T06:34:13;30.00;;;14.30;;
24335;SDS011;33098;52.400;16.880;2023-02-28T06:36:41;32.30;;;14.80;;
24335;SDS011;33098;52.400;16.880;2023-02-28T06:39:09;37.50;;;14.80;;
24335;SDS011;33098;52.400;16.880;2023-02-28T06:41:37;32.90;;;14.90;;
24335;SDS011;33098;52.400;16.880;2023-02-28T06:44:11;35.30;;;15.00;;
24335;SDS011;33098;52.400;16.880;2023-02-28T06:46:40;33.20;;;16.70;;
24335;SDS011;33098;52.400;16.880;2023-02-28T06:49:09;37.20;;;17.90;;
24335;SDS011;33098;52.400;16.880;2023-02-28T06:51:39;33.80;;;16.50;;
24335;SDS011;33098;52.400;16.880;2023-02-28T06:54:11;35.10;;;16.10;;
24335;SDS011;33098;52.400;16.880;2023-02-28T06:56:39;34.70;;;17.80;;
24335;SDS011;33098;52.400;16.880;2023-02-28T06:59:06;34.00;;;17.50;;
24335;SDS011;33098;52.400;16.880;2023-02-28T07:01:33;32.00;;;17.10;;
24335;SDS011;33098;52.400;16.880;2023-02-28T07:04:01;35.40;;;16.60;;
24335;SDS011;33098;52.400;16.880;2023-02-28T07:06:28;31.30;;;16.20;;
24335;SDS011;33098;52.400;16.880;2023-02-28T07:08:55;33.90;;;16.20;;
24335;SDS011;33098;52.400;16.880;2023-02-28T07:11:23;27.80;;;15.00;;
24335;SDS011;33098;52.400;16.880;2023-02-28T07:13:55;28.50;;;15.30;;
24335;SDS011;33098;52.400;16.880;2023-02-28T07:16:26;27.30;;;14.10;;
24335;SDS011;33098;52.400;16.880;2023-02-28T07:19:00;27.10;;;14.20;;
24335;SDS011;33098;52.400;16.880;2023-02-28T07:21:27;27.30;;;15.30;;
24335;SDS011;33098;52.400;16.880;2023-02-28T07:23:55;25.60;;;14.10;;
24335;SDS011;33098;52.400;16.880;2023-02-28T07:26:23;32.60;;;15.50;;
24335;SDS011;33098;52.400;16.880;2023-02-28T07:28:50;35.10;;;15.80;;
24335;SDS011;33098;52.400;16.880;2023-02-28T07:31:20;30.60;;;15.80;;
24335;SDS011;33098;52.400;16.880;2023-02-28T07:33:51;34.80;;;15.60;;
24335;SDS011;33098;52.400;16.880;2023-02-28T07:36:19;27.80;;;15.60;;
24335;SDS011;33098;52.400;16.880;2023-02-28T07:38:48;25.90;;;14.50;;
24335;SDS011;33098;52.400;16.880;2023-02-28T07:41:19;27.40;;;15.10;;
24335;SDS011;33098;52.400;16.880;2023-02-28T07:46:16;33.50;;;15.00;;
24335;SDS011;33098;52.400;16.880;2023-02-28T07:48:44;24.30;;;13.50;;
24335;SDS011;33098;52.400;16.880;2023-02-28T07:51:16;28.70;;;14.40;;
24335;SDS011;33098;52.400;16.880;2023-02-28T07:53:44;26.90;;;13.70;;
24335;SDS011;33098;52.400;16.880;2023-02-28T07:56:23;26.60;;;13.70;;
24335;SDS011;33098;52.400;16.880;2023-02-28T07:58:51;30.50;;;14.60;;
24335;SDS011;33098;52.400;16.880;2023-02-28T08:01:20;23.70;;;13.50;;
24335;SDS011;33098;52.400;16.880;2023-02-28T08:03:49;27.10;;;14.90;;
24335;SDS011;33098;52.400;16.880;2023-02-28T08:06:24;27.70;;;14.20;;
24335;SDS011;33098;52.400;16.880;2023-02-28T08:08:55;26.00;;;14.50;;
24335;SDS011;33098;52.400;16.880;2023-02-28T08:11:23;25.50;;;13.60;;
24335;SDS011;33098;52.400;16.880;2023-02-28T08:13:50;26.80;;;14.40;;
24335;SDS011;33098;52.400;16.880;2023-02-28T08:16:17;26.10;;;15.30;;
24335;SDS011;33098;52.400;16.880;2023-02-28T08:18:49;30.50;;;15.20;;
24335;SDS011;33098;52.400;16.880;2023-02-28T08:21:17;29.90;;;14.50;;
24335;SDS011;33098;52.400;16.880;2023-02-28T08:23:48;28.30;;;14.70;;
24335;SDS011;33098;52.400;16.880;2023-02-28T08:26:18;27.80;;;15.60;;
24335;SDS011;33098;52.400;16.880;2023-02-28T08:28:48;30.50;;;15.40;;
24335;SDS011;33098;52.400;16.880;2023-02-28T08:31:16;28.10;;;15.40;;
24335;SDS011;33098;52.400;16.880;2023-02-28T08:33:43;28.00;;;14.80;;
24335;SDS011;33098;52.400;16.880;2023-02-28T08:36:13;27.60;;;14.90;;
24335;SDS011;33098;52.400;16.880;2023-02-28T08:38:42;29.90;;;14.70;;
24335;SDS011;33098;52.400;16.880;2023-02-28T08:41:10;34.50;;;16.40;;
24335;SDS011;33098;52.400;16.880;2023-02-28T08:43:40;33.90;;;16.00;;
24335;SDS011;33098;52.400;16.880;2023-02-28T08:46:11;28.20;;;15.50;;
24335;SDS011;33098;52.400;16.880;2023-02-28T08:48:41;28.50;;;14.50;;
24335;SDS011;33098;52.400;16.880;2023-02-28T08:51:11;28.80;;;14.60;;
24335;SDS011;33098;52.400;16.880;2023-02-28T08:53:47;27.30;;;14.40;;
24335;SDS011;33098;52.400;16.880;2023-02-28T08:56:18;22.90;;;13.00;;
24335;SDS011;33098;52.400;16.880;2023-02-28T08:58:46;26.70;;;14.10;;
24335;SDS011;33098;52.400;16.880;2023-02-28T09:01:18;34.50;;;14.30;;
24335;SDS011;33098;52.400;16.880;2023-02-28T09:03:48;32.70;;;15.00;;
24335;SDS011;33098;52.400;16.880;2023-02-28T09:06:16;32.20;;;16.00;;
24335;SDS011;33098;52.400;16.880;2023-02-28T09:08:47;27.80;;;15.20;;
24335;SDS011;33098;52.400;16.880;2023-02-28T09:11:16;33.30;;;16.30;;
24335;SDS011;33098;52.400;16.880;2023-02-28T09:13:44;30.10;;;16.20;;
24335;SDS011;33098;52.400;16.880;2023-02-28T09:16:13;24.80;;;12.50;;
24335;SDS011;33098;52.400;16.880;2023-02-28T09:18:45;21.90;;;11.80;;
24335;SDS011;33098;52.400;16.880;2023-02-28T09:21:13;22.40;;;13.00;;
24335;SDS011;33098;52.400;16.880;2023-02-28T09:23:44;29.30;;;14.40;;
24335;SDS011;33098;52.400;16.880;2023-02-28T09:26:20;21.70;;;13.00;;
24335;SDS011;33098;52.400;16.880;2023-02-28T09:28:51;21.80;;;12.70;;
24335;SDS011;33098;52.400;16.880;2023-02-28T09:31:20;24.70;;;12.90;;
24335;SDS011;33098;52.400;16.880;2023-02-28T09:33:51;20.50;;;11.60;;
24335;SDS011;33098;52.400;16.880;2023-02-28T09:36:20;22.80;;;12.50;;
24335;SDS011;33098;52.400;16.880;2023-02-28T09:38:48;26.10;;;13.10;;
24335;SDS011;33098;52.400;16.880;2023-02-28T09:41:19;24.30;;;12.00;;
24335;SDS011;33098;52.400;16.880;2023-02-28T09:43:55;24.20;;;11.80;;
24335;SDS011;33098;52.400;16.880;2023-02-28T09:46:44;20.30;;;10.60;;
24335;SDS011;33098;52.400;16.880;2023-02-28T09:49:22;19.80;;;11.50;;
24335;SDS011;33098;52.400;16.880;2023-02-28T09:51:59;23.10;;;12.30;;
24335;SDS011;33098;52.400;16.880;2023-02-28T09:57:08;20.50;;;11.50;;
24335;SDS011;33098;52.400;16.880;2023-02-28T10:05:08;22.00;;;11.80;;
24335;SDS011;33098;52.400;16.880;2023-02-28T10:10:45;20.90;;;11.30;;
24335;SDS011;33098;52.400;16.880;2023-02-28T10:13:24;19.60;;;11.30;;
24335;SDS011;33098;52.400;16.880;2023-02-28T10:15:58;24.30;;;11.50;;
24335;SDS011;33098;52.400;16.880;2023-02-28T10:18:33;24.80;;;12.90;;
24335;SDS011;33098;52.400;16.880;2023-02-28T10:21:10;19.70;;;12.00;;
24335;SDS011;33098;52.400;16.880;2023-02-28T10:23:53;24.60;;;12.60;;
24335;SDS011;33098;52.400;16.880;2023-02-28T10:26:37;23.10;;;13.20;;
24335;SDS011;33098;52.400;16.880;2023-02-28T10:29:03;19.10;;;11.50;;
24335;SDS011;33098;52.400;16.880;2023-02-28T10:31:33;12.80;;;7.20;;
24335;SDS011;33098;52.400;16.880;2023-02-28T10:34:00;14.70;;;8.20;;
24335;SDS011;33098;52.400;16.880;2023-02-28T10:36:28;16.00;;;8.60;;
24335;SDS011;33098;52.400;16.880;2023-02-28T10:38:57;12.50;;;7.70;;
24335;SDS011;33098;52.400;16.880;2023-02-28T10:41:30;15.40;;;8.00;;
24335;SDS011;33098;52.400;16.880;2023-02-28T10:46:46;16.40;;;9.20;;
24335;SDS011;33098;52.400;16.880;2023-02-28T10:49:17;18.50;;;9.00;;
24335;SDS011;33098;52.400;16.880;2023-02-28T10:51:57;17.40;;;8.30;;
24335;SDS011;33098;52.400;16.880;2023-02-28T10:54:29;14.10;;;6.70;;
24335;SDS011;33098;52.400;16.880;2023-02-28T10:59:33;10.80;;;6.40;;
24335;SDS011;33098;52.400;16.880;2023-02-28T11:02:00;11.10;;;6.40;;
24335;SDS011;33098;52.400;16.880;2023-02-28T11:06:59;11.70;;;6.40;;
24335;SDS011;33098;52.400;16.880;2023-02-28T11:09:39;11.50;;;7.40;;
24335;SDS011;33098;52.400;16.880;2023-02-28T11:12:07;15.40;;;7.60;;
24335;SDS011;33098;52.400;16.880;2023-02-28T11:14:54;15.40;;;6.80;;
24335;SDS011;33098;52.400;16.880;2023-02-28T11:17:28;14.60;;;7.90;;
24335;SDS011;33098;52.400;16.880;2023-02-28T11:20:07;12.70;;;7.00;;
24335;SDS011;33098;52.400;16.880;2023-02-28T11:22:45;14.00;;;7.30;;
24335;SDS011;33098;52.400;16.880;2023-02-28T11:25:21;12.80;;;7.40;;
24335;SDS011;33098;52.400;16.880;2023-02-28T11:28:03;13.10;;;6.60;;
24335;SDS011;33098;52.400;16.880;2023-02-28T11:30:37;13.50;;;7.50;;
24335;SDS011;33098;52.400;16.880;2023-02-28T11:35:53;13.70;;;7.40;;
24335;SDS011;33098;52.400;16.880;2023-02-28T11:38:32;13.30;;;7.60;;
24335;SDS011;33098;52.400;16.880;2023-02-28T11:41:05;15.40;;;7.50;;
24335;SDS011;33098;52.400;16.880;2023-02-28T11:46:31;15.60;;;7.30;;
24335;SDS011;33098;52.400;16.880;2023-02-28T11:54:42;13.90;;;7.50;;
24335;SDS011;33098;52.400;16.880;2023-02-28T12:00:26;11.90;;;7.20;;
24335;SDS011;33098;52.400;16.880;2023-02-28T12:03:16;13.50;;;8.20;;
24335;SDS011;33098;52.400;16.880;2023-02-28T12:11:52;15.90;;;7.30;;
24335;SDS011;33098;52.400;16.880;2023-02-28T12:17:30;12.00;;;7.00;;
24335;SDS011;33098;52.400;16.880;2023-02-28T12:20:36;13.40;;;7.00;;
24335;SDS011;33098;52.400;16.880;2023-02-28T12:28:34;11.60;;;7.50;;
24335;SDS011;33098;52.400;16.880;2023-02-28T12:31:12;12.90;;;8.40;;
24335;SDS011;33098;52.400;16.880;2023-02-28T12:33:48;12.70;;;8.20;;
24335;SDS011;33098;52.400;16.880;2023-02-28T12:36:19;16.30;;;7.80;;
24335;SDS011;33098;52.400;16.880;2023-02-28T12:41:36;12.80;;;8.10;;
24335;SDS011;33098;52.400;16.880;2023-02-28T12:44:11;17.50;;;9.30;;
24335;SDS011;33098;52.400;16.880;2023-02-28T12:46:49;14.50;;;8.30;;
24335;SDS011;33098;52.400;16.880;2023-02-28T12:49:21;12.90;;;7.50;;
24335;SDS011;33098;52.400;16.880;2023-02-28T12:51:57;13.20;;;8.10;;
24335;SDS011;33098;52.400;16.880;2023-02-28T12:59:54;9.60;;;5.90;;
24335;SDS011;33098;52.400;16.880;2023-02-28T13:10:20;9.20;;;5.70;;
24335;SDS011;33098;52.400;16.880;2023-02-28T13:12:49;12.20;;;6.30;;
24335;SDS011;33098;52.400;16.880;2023-02-28T13:17:52;9.00;;;5.90;;
24335;SDS011;33098;52.400;16.880;2023-02-28T13:20:31;10.90;;;6.60;;
24335;SDS011;33098;52.400;16.880;2023-02-28T13:23:05;9.10;;;6.60;;
24335;SDS011;33098;52.400;16.880;2023-02-28T13:34:35;7.50;;;5.50;;
24335;SDS011;33098;52.400;16.880;2023-02-28T13:39:53;11.90;;;5.50;;
24335;SDS011;33098;52.400;16.880;2023-02-28T13:47:52;8.20;;;4.70;;
24335;SDS011;33098;52.400;16.880;2023-02-28T13:55:52;10.20;;;5.80;;
24335;SDS011;33098;52.400;16.880;2023-02-28T14:01:30;9.50;;;5.90;;
24335;SDS011;33098;52.400;16.880;2023-02-28T14:04:43;9.20;;;5.30;;
24335;SDS011;33098;52.400;16.880;2023-02-28T14:07:24;11.40;;;6.00;;
24335;SDS011;33098;52.400;16.880;2023-02-28T14:09:59;9.40;;;5.60;;
24335;SDS011;33098;52.400;16.880;2023-02-28T14:18:01;14.40;;;6.10;;
24335;SDS011;33098;52.400;16.880;2023-02-28T14:20:35;9.60;;;6.20;;
24335;SDS011;33098;52.400;16.880;2023-02-28T14:23:06;12.30;;;6.80;;
24335;SDS011;33098;52.400;16.880;2023-02-28T14:26:28;15.20;;;6.60;;
24335;SDS011;33098;52.400;16.880;2023-02-28T14:29:05;10.70;;;6.40;;
24335;SDS011;33098;52.400;16.880;2023-02-28T14:40:19;12.50;;;6.50;;
24335;SDS011;33098;52.400;16.880;2023-02-28T14:43:00;10.80;;;6.70;;
24335;SDS011;33098;52.400;16.880;2023-02-28T14:45:30;12.10;;;6.90;;
24335;SDS011;33098;52.400;16.880;2023-02-28T14:48:01;11.70;;;6.70;;
24335;SDS011;33098;52.400;16.880;2023-02-28T14:50:32;11.80;;;6.30;;
24335;SDS011;33098;52.400;16.880;2023-02-28T14:53:02;10.60;;;5.80;;
24335;SDS011;33098;52.400;16.880;2023-02-28T14:55:34;10.50;;;6.70;;
24335;SDS011;33098;52.400;16.880;2023-02-28T14:58:24;11.50;;;6.50;;
24335;SDS011;33098;52.400;16.880;2023-02-28T15:01:03;11.10;;;7.10;;
24335;SDS011;33098;52.400;16.880;2023-02-28T15:03:32;12.90;;;7.20;;
24335;SDS011;33098;52.400;16.880;2023-02-28T15:06:02;13.30;;;7.50;;
24335;SDS011;33098;52.400;16.880;2023-02-28T15:09:05;12.20;;;7.40;;
24335;SDS011;33098;52.400;16.880;2023-02-28T15:11:35;13.90;;;8.00;;
24335;SDS011;33098;52.400;16.880;2023-02-28T15:14:04;13.40;;;7.40;;
24335;SDS011;33098;52.400;16.880;2023-02-28T15:16:33;14.60;;;6.80;;
24335;SDS011;33098;52.400;16.880;2023-02-28T15:19:07;13.40;;;6.50;;
24335;SDS011;33098;52.400;16.880;2023-02-28T15:21:47;11.90;;;6.90;;
24335;SDS011;33098;52.400;16.880;2023-02-28T15:24:25;11.70;;;7.40;;
24335;SDS011;33098;52.400;16.880;2023-02-28T15:27:05;10.90;;;7.10;;
24335;SDS011;33098;52.400;16.880;2023-02-28T15:29:47;13.70;;;7.20;;
24335;SDS011;33098;52.400;16.880;2023-02-28T15:32:23;16.40;;;7.50;;
24335;SDS011;33098;52.400;16.880;2023-02-28T15:34:51;13.00;;;7.10;;
24335;SDS011;33098;52.400;16.880;2023-02-28T15:37:38;12.90;;;7.10;;
24335;SDS011;33098;52.400;16.880;2023-02-28T15:40:22;12.90;;;7.30;;
24335;SDS011;33098;52.400;16.880;2023-02-28T15:48:53;12.70;;;6.60;;
24335;SDS011;33098;52.400;16.880;2023-02-28T15:51:24;12.60;;;7.10;;
24335;SDS011;33098;52.400;16.880;2023-02-28T15:54:08;12.60;;;6.80;;
24335;SDS011;33098;52.400;16.880;2023-02-28T15:56:46;12.40;;;7.10;;
24335;SDS011;33098;52.400;16.880;2023-02-28T15:59:20;11.50;;;6.70;;
24335;SDS011;33098;52.400;16.880;2023-02-28T16:05:01;11.30;;;6.50;;
24335;SDS011;33098;52.400;16.880;2023-02-28T16:07:39;14.20;;;7.10;;
24335;SDS011;33098;52.400;16.880;2023-02-28T16:10:09;16.80;;;8.40;;
24335;SDS011;33098;52.400;16.880;2023-02-28T16:12:41;18.70;;;8.70;;
24335;SDS011;33098;52.400;16.880;2023-02-28T16:15:17;18.70;;;9.00;;
24335;SDS011;33098;52.400;16.880;2023-02-28T16:17:53;15.80;;;9.30;;
24335;SDS011;33098;52.400;16.880;2023-02-28T16:20:22;22.90;;;10.80;;
24335;SDS011;33098;52.400;16.880;2023-02-28T16:22:54;18.10;;;10.50;;
24335;SDS011;33098;52.400;16.880;2023-02-28T16:25:23;20.40;;;10.30;;
24335;SDS011;33098;52.400;16.880;2023-02-28T16:28:02;19.30;;;10.40;;
24335;SDS011;33098;52.400;16.880;2023-02-28T16:30:30;20.40;;;11.50;;
24335;SDS011;33098;52.400;16.880;2023-02-28T16:33:04;22.70;;;11.30;;
24335;SDS011;33098;52.400;16.880;2023-02-28T16:35:31;21.10;;;11.40;;
24335;SDS011;33098;52.400;16.880;2023-02-28T16:37:58;21.80;;;11.90;;
24335;SDS011;33098;52.400;16.880;2023-02-28T16:40:28;19.70;;;11.10;;
24335;SDS011;33098;52.400;16.880;2023-02-28T16:43:00;19.10;;;11.20;;
24335;SDS011;33098;52.400;16.880;2023-02-28T16:45:34;23.10;;;10.60;;
24335;SDS011;33098;52.400;16.880;2023-02-28T16:48:04;20.20;;;11.70;;
24335;SDS011;33098;52.400;16.880;2023-02-28T16:50:33;19.20;;;10.90;;
24335;SDS011;33098;52.400;16.880;2023-02-28T16:53:02;18.50;;;11.40;;
24335;SDS011;33098;52.400;16.880;2023-02-28T16:55:29;21.50;;;11.20;;
24335;SDS011;33098;52.400;16.880;2023-02-28T16:57:57;19.80;;;11.80;;
24335;SDS011;33098;52.400;16.880;2023-02-28T17:00:25;20.10;;;11.80;;
24335;SDS011;33098;52.400;16.880;2023-02-28T17:02:54;26.40;;;12.70;;
24335;SDS011;33098;52.400;16.880;2023-02-28T17:05:23;24.60;;;13.50;;
24335;SDS011;33098;52.400;16.880;2023-02-28T17:07:50;28.90;;;14.60;;
24335;SDS011;33098;52.400;16.880;2023-02-28T17:10:24;21.80;;;13.70;;
24335;SDS011;33098;52.400;16.880;2023-02-28T17:12:52;25.10;;;13.90;;
24335;SDS011;33098;52.400;16.880;2023-02-28T17:15:19;28.40;;;14.10;;